sensor_id;sensor_type;location;lat;lon;timestamp;P1;durP1;ratioP1;P2;durP2;ratioP2
41253;SDS011;26987;59.928;30.306;2024-02-16T00:01:16;34.15;;;15.25;;
41253;SDS011;26987;59.928;30.306;2024-02-16T00:03:46;35.25;;;15.85;;
41253;SDS011;26987;59.928;30.306;2024-02-16T00:06:14;38.55;;;16.42;;
41253;SDS011;26987;59.928;30.306;2024-02-16T00:08:41;38.95;;;16.02;;
41253;SDS011;26987;59.928;30.306;2024-02-16T00:11:09;35.45;;;15.75;;
41253;SDS011;26987;59.928;30.306;2024-02-16T00:13:38;32.53;;;14.75;;
41253;SDS011;26987;59.928;30.306;2024-02-16T00:16:06;33.40;;;15.00;;
41253;SDS011;26987;59.928;30.306;2024-02-16T00:18:34;36.10;;;14.85;;
41253;SDS011;26987;59.928;30.306;2024-02-16T00:21:04;34.08;;;15.50;;
41253;SDS011;26987;59.928;30.306;2024-02-16T00:23:32;39.50;;;16.55;;
41253;SDS011;26987;59.928;30.306;2024-02-16T00:26:01;34.38;;;15.43;;
41253;SDS011;26987;59.928;30.306;2024-02-16T00:28:33;33.35;;;15.27;;
41253;SDS011;26987;59.928;30.306;2024-02-16T00:31:01;40.97;;;14.98;;
41253;SDS011;26987;59.928;30.306;2024-02-16T00:33:31;38.97;;;16.00;;
41253;SDS011;26987;59.928;30.306;2024-02-16T00:35:59;30.48;;;14.60;;
41253;SDS011;26987;59.928;30.306;2024-02-16T00:38:31;37.95;;;15.63;;
41253;SDS011;26987;59.928;30.306;2024-02-16T00:41:00;35.03;;;16.83;;
41253;SDS011;26987;59.928;30.306;2024-02-16T00:43:29;36.38;;;15.60;;
41253;SDS011;26987;59.928;30.306;2024-02-16T00:45:57;40.80;;;16.10;;
41253;SDS011;26987;59.928;30.306;2024-02-16T00:48:25;38.15;;;16.55;;
41253;SDS011;26987;59.928;30.306;2024-02-16T00:50:53;31.58;;;14.88;;
41253;SDS011;26987;59.928;30.306;2024-02-16T00:53:21;41.78;;;16.27;;
41253;SDS011;26987;59.928;30.306;2024-02-16T00:55:50;32.10;;;15.30;;
41253;SDS011;26987;59.928;30.306;2024-02-16T00:58:18;36.50;;;16.50;;
41253;SDS011;26987;59.928;30.306;2024-02-16T01:00:46;38.55;;;16.52;;
41253;SDS011;26987;59.928;30.306;2024-02-16T01:03:15;38.92;;;16.33;;
41253;SDS011;26987;59.928;30.306;2024-02-16T01:05:43;37.40;;;15.27;;
41253;SDS011;26987;59.928;30.306;2024-02-16T01:08:10;37.28;;;16.33;;
41253;SDS011;26987;59.928;30.306;2024-02-16T01:10:38;39.78;;;15.63;;
41253;SDS011;26987;59.928;30.306;2024-02-16T01:13:07;33.35;;;15.50;;
41253;SDS011;26987;59.928;30.306;2024-02-16T01:15:36;36.50;;;15.88;;
41253;SDS011;26987;59.928;30.306;2024-02-16T01:18:04;35.72;;;16.08;;
41253;SDS011;26987;59.928;30.306;2024-02-16T01:20:32;37.63;;;16.73;;
41253;SDS011;26987;59.928;30.306;2024-02-16T01:23:02;36.17;;;16.17;;
41253;SDS011;26987;59.928;30.306;2024-02-16T01:25:31;40.13;;;16.75;;
41253;SDS011;26987;59.928;30.306;2024-02-16T01:27:59;40.17;;;18.10;;
41253;SDS011;26987;59.928;30.306;2024-02-16T01:30:28;38.58;;;16.58;;
41253;SDS011;26987;59.928;30.306;2024-02-16T01:32:56;40.22;;;16.58;;
41253;SDS011;26987;59.928;30.306;2024-02-16T01:35:24;38.80;;;17.10;;
41253;SDS011;26987;59.928;30.306;2024-02-16T01:37:52;40.85;;;18.02;;
41253;SDS011;26987;59.928;30.306;2024-02-16T01:40:20;39.20;;;16.65;;
41253;SDS011;26987;59.928;30.306;2024-02-16T01:42:48;37.63;;;17.85;;
41253;SDS011;26987;59.928;30.306;2024-02-16T01:45:17;38.30;;;17.90;;
41253;SDS011;26987;59.928;30.306;2024-02-16T01:47:49;44.08;;;18.75;;
41253;SDS011;26987;59.928;30.306;2024-02-16T01:50:18;43.20;;;18.90;;
41253;SDS011;26987;59.928;30.306;2024-02-16T01:52:47;39.97;;;18.08;;
41253;SDS011;26987;59.928;30.306;2024-02-16T01:55:19;37.38;;;17.02;;
41253;SDS011;26987;59.928;30.306;2024-02-16T01:57:48;43.90;;;18.15;;
41253;SDS011;26987;59.928;30.306;2024-02-16T02:00:16;38.05;;;17.00;;
41253;SDS011;26987;59.928;30.306;2024-02-16T02:02:45;39.25;;;18.10;;
41253;SDS011;26987;59.928;30.306;2024-02-16T02:05:15;45.47;;;17.70;;
41253;SDS011;26987;59.928;30.306;2024-02-16T02:07:43;38.95;;;17.38;;
41253;SDS011;26987;59.928;30.306;2024-02-16T02:10:11;40.03;;;17.42;;
41253;SDS011;26987;59.928;30.306;2024-02-16T02:12:39;37.75;;;17.50;;
41253;SDS011;26987;59.928;30.306;2024-02-16T02:15:08;34.53;;;16.35;;
41253;SDS011;26987;59.928;30.306;2024-02-16T02:17:37;36.45;;;16.20;;
41253;SDS011;26987;59.928;30.306;2024-02-16T02:20:06;32.88;;;16.08;;
41253;SDS011;26987;59.928;30.306;2024-02-16T02:22:38;35.40;;;14.82;;
41253;SDS011;26987;59.928;30.306;2024-02-16T02:25:07;40.00;;;17.30;;
41253;SDS011;26987;59.928;30.306;2024-02-16T02:27:36;33.17;;;15.10;;
41253;SDS011;26987;59.928;30.306;2024-02-16T02:30:08;36.72;;;14.43;;
41253;SDS011;26987;59.928;30.306;2024-02-16T02:32:37;31.50;;;13.80;;
41253;SDS011;26987;59.928;30.306;2024-02-16T02:35:05;25.05;;;13.05;;
41253;SDS011;26987;59.928;30.306;2024-02-16T02:37:38;32.40;;;14.32;;
41253;SDS011;26987;59.928;30.306;2024-02-16T02:40:11;30.80;;;13.27;;
41253;SDS011;26987;59.928;30.306;2024-02-16T02:42:39;31.50;;;14.18;;
41253;SDS011;26987;59.928;30.306;2024-02-16T02:45:07;23.90;;;12.93;;
41253;SDS011;26987;59.928;30.306;2024-02-16T02:47:36;31.17;;;15.05;;
41253;SDS011;26987;59.928;30.306;2024-02-16T02:50:04;30.13;;;14.50;;
41253;SDS011;26987;59.928;30.306;2024-02-16T02:52:33;29.30;;;14.85;;
41253;SDS011;26987;59.928;30.306;2024-02-16T02:55:02;27.10;;;14.52;;
41253;SDS011;26987;59.928;30.306;2024-02-16T02:57:31;28.27;;;14.80;;
41253;SDS011;26987;59.928;30.306;2024-02-16T03:00:05;29.05;;;13.70;;
41253;SDS011;26987;59.928;30.306;2024-02-16T03:02:36;30.67;;;14.63;;
41253;SDS011;26987;59.928;30.306;2024-02-16T03:05:05;30.95;;;13.80;;
41253;SDS011;26987;59.928;30.306;2024-02-16T03:07:34;27.30;;;13.18;;
41253;SDS011;26987;59.928;30.306;2024-02-16T03:10:04;27.23;;;12.13;;
41253;SDS011;26987;59.928;30.306;2024-02-16T03:12:38;34.08;;;12.05;;
41253;SDS011;26987;59.928;30.306;2024-02-16T03:15:06;30.98;;;13.43;;
41253;SDS011;26987;59.928;30.306;2024-02-16T03:17:36;28.08;;;11.57;;
41253;SDS011;26987;59.928;30.306;2024-02-16T03:20:04;22.98;;;10.95;;
41253;SDS011;26987;59.928;30.306;2024-02-16T03:22:33;23.23;;;12.02;;
41253;SDS011;26987;59.928;30.306;2024-02-16T03:25:01;20.95;;;10.65;;
41253;SDS011;26987;59.928;30.306;2024-02-16T03:27:31;26.45;;;10.63;;
41253;SDS011;26987;59.928;30.306;2024-02-16T03:30:00;25.38;;;11.45;;
41253;SDS011;26987;59.928;30.306;2024-02-16T03:32:29;24.27;;;10.35;;
41253;SDS011;26987;59.928;30.306;2024-02-16T03:34:57;21.80;;;9.90;;
41253;SDS011;26987;59.928;30.306;2024-02-16T03:37:25;21.25;;;9.13;;
41253;SDS011;26987;59.928;30.306;2024-02-16T03:39:56;23.85;;;10.13;;
41253;SDS011;26987;59.928;30.306;2024-02-16T03:42:26;24.33;;;10.27;;
41253;SDS011;26987;59.928;30.306;2024-02-16T03:44:54;31.60;;;10.98;;
41253;SDS011;26987;59.928;30.306;2024-02-16T03:47:25;26.40;;;10.80;;
41253;SDS011;26987;59.928;30.306;2024-02-16T03:49:53;23.73;;;10.43;;
41253;SDS011;26987;59.928;30.306;2024-02-16T03:52:21;22.60;;;9.63;;
41253;SDS011;26987;59.928;30.306;2024-02-16T03:54:49;21.27;;;9.68;;
41253;SDS011;26987;59.928;30.306;2024-02-16T03:57:17;22.83;;;10.77;;
41253;SDS011;26987;59.928;30.306;2024-02-16T03:59:46;21.27;;;10.23;;
41253;SDS011;26987;59.928;30.306;2024-02-16T04:02:14;27.17;;;10.95;;
41253;SDS011;26987;59.928;30.306;2024-02-16T04:04:43;28.77;;;11.10;;
41253;SDS011;26987;59.928;30.306;2024-02-16T04:07:11;22.13;;;10.93;;
41253;SDS011;26987;59.928;30.306;2024-02-16T04:09:41;22.50;;;10.40;;
41253;SDS011;26987;59.928;30.306;2024-02-16T04:12:10;24.77;;;10.80;;
41253;SDS011;26987;59.928;30.306;2024-02-16T04:14:38;24.90;;;10.38;;
41253;SDS011;26987;59.928;30.306;2024-02-16T04:17:09;24.52;;;10.88;;
41253;SDS011;26987;59.928;30.306;2024-02-16T04:19:37;27.10;;;12.18;;
41253;SDS011;26987;59.928;30.306;2024-02-16T04:22:05;23.23;;;11.30;;
41253;SDS011;26987;59.928;30.306;2024-02-16T04:24:33;24.83;;;10.30;;
41253;SDS011;26987;59.928;30.306;2024-02-16T04:27:01;23.77;;;10.50;;
41253;SDS011;26987;59.928;30.306;2024-02-16T04:29:29;25.10;;;9.77;;
41253;SDS011;26987;59.928;30.306;2024-02-16T04:31:56;21.25;;;10.73;;
41253;SDS011;26987;59.928;30.306;2024-02-16T04:34:26;27.80;;;10.00;;
41253;SDS011;26987;59.928;30.306;2024-02-16T04:36:54;29.30;;;11.23;;
41253;SDS011;26987;59.928;30.306;2024-02-16T04:39:21;29.08;;;12.15;;
41253;SDS011;26987;59.928;30.306;2024-02-16T04:41:49;24.45;;;10.52;;
41253;SDS011;26987;59.928;30.306;2024-02-16T04:44:19;23.02;;;11.13;;
41253;SDS011;26987;59.928;30.306;2024-02-16T04:46:47;29.98;;;10.32;;
41253;SDS011;26987;59.928;30.306;2024-02-16T04:49:18;28.63;;;11.38;;
41253;SDS011;26987;59.928;30.306;2024-02-16T04:51:48;26.50;;;10.55;;
41253;SDS011;26987;59.928;30.306;2024-02-16T04:54:16;29.75;;;11.07;;
41253;SDS011;26987;59.928;30.306;2024-02-16T04:56:44;24.02;;;11.30;;
41253;SDS011;26987;59.928;30.306;2024-02-16T04:59:12;23.92;;;10.35;;
41253;SDS011;26987;59.928;30.306;2024-02-16T05:01:39;22.50;;;9.82;;
41253;SDS011;26987;59.928;30.306;2024-02-16T05:04:08;19.10;;;9.40;;
41253;SDS011;26987;59.928;30.306;2024-02-16T05:06:38;23.08;;;9.05;;
41253;SDS011;26987;59.928;30.306;2024-02-16T05:09:10;25.38;;;9.93;;
41253;SDS011;26987;59.928;30.306;2024-02-16T05:11:38;19.33;;;9.05;;
41253;SDS011;26987;59.928;30.306;2024-02-16T05:14:08;21.23;;;9.63;;
41253;SDS011;26987;59.928;30.306;2024-02-16T05:16:42;19.70;;;8.82;;
41253;SDS011;26987;59.928;30.306;2024-02-16T05:19:11;24.67;;;10.88;;
41253;SDS011;26987;59.928;30.306;2024-02-16T05:21:38;23.98;;;9.30;;
41253;SDS011;26987;59.928;30.306;2024-02-16T05:24:07;26.73;;;10.52;;
41253;SDS011;26987;59.928;30.306;2024-02-16T05:26:36;20.27;;;8.98;;
41253;SDS011;26987;59.928;30.306;2024-02-16T05:29:04;23.55;;;8.90;;
41253;SDS011;26987;59.928;30.306;2024-02-16T05:31:32;25.83;;;9.95;;
41253;SDS011;26987;59.928;30.306;2024-02-16T05:34:02;18.55;;;9.35;;
41253;SDS011;26987;59.928;30.306;2024-02-16T05:36:30;16.58;;;7.85;;
41253;SDS011;26987;59.928;30.306;2024-02-16T05:39:02;22.73;;;8.90;;
41253;SDS011;26987;59.928;30.306;2024-02-16T05:41:47;23.73;;;8.60;;
41253;SDS011;26987;59.928;30.306;2024-02-16T05:44:15;17.83;;;8.35;;
41253;SDS011;26987;59.928;30.306;2024-02-16T05:46:44;18.60;;;8.55;;
41253;SDS011;26987;59.928;30.306;2024-02-16T05:49:12;21.52;;;8.50;;
41253;SDS011;26987;59.928;30.306;2024-02-16T05:51:40;21.23;;;8.60;;
41253;SDS011;26987;59.928;30.306;2024-02-16T05:54:26;20.42;;;8.23;;
41253;SDS011;26987;59.928;30.306;2024-02-16T05:56:55;17.33;;;8.20;;
41253;SDS011;26987;59.928;30.306;2024-02-16T05:59:23;18.13;;;8.60;;
41253;SDS011;26987;59.928;30.306;2024-02-16T06:01:53;17.60;;;8.80;;
41253;SDS011;26987;59.928;30.306;2024-02-16T06:04:21;16.50;;;7.78;;
41253;SDS011;26987;59.928;30.306;2024-02-16T06:06:48;16.30;;;7.90;;
41253;SDS011;26987;59.928;30.306;2024-02-16T06:09:17;18.25;;;7.78;;
41253;SDS011;26987;59.928;30.306;2024-02-16T06:11:45;15.60;;;7.45;;
41253;SDS011;26987;59.928;30.306;2024-02-16T06:14:16;16.77;;;7.22;;
41253;SDS011;26987;59.928;30.306;2024-02-16T06:16:44;14.77;;;7.05;;
41253;SDS011;26987;59.928;30.306;2024-02-16T06:19:12;17.58;;;7.85;;
41253;SDS011;26987;59.928;30.306;2024-02-16T06:21:41;18.58;;;6.97;;
41253;SDS011;26987;59.928;30.306;2024-02-16T06:24:09;13.90;;;6.82;;
41253;SDS011;26987;59.928;30.306;2024-02-16T06:26:37;16.20;;;7.53;;
41253;SDS011;26987;59.928;30.306;2024-02-16T06:29:05;16.50;;;7.50;;
41253;SDS011;26987;59.928;30.306;2024-02-16T06:31:34;14.18;;;7.43;;
41253;SDS011;26987;59.928;30.306;2024-02-16T06:34:02;17.10;;;6.00;;
41253;SDS011;26987;59.928;30.306;2024-02-16T06:36:30;18.48;;;6.97;;
41253;SDS011;26987;59.928;30.306;2024-02-16T06:38:58;15.57;;;5.80;;
41253;SDS011;26987;59.928;30.306;2024-02-16T06:41:26;11.43;;;5.97;;
41253;SDS011;26987;59.928;30.306;2024-02-16T06:43:54;13.43;;;6.53;;
41253;SDS011;26987;59.928;30.306;2024-02-16T06:46:22;16.77;;;6.57;;
41253;SDS011;26987;59.928;30.306;2024-02-16T06:48:52;12.63;;;6.78;;
41253;SDS011;26987;59.928;30.306;2024-02-16T06:51:22;17.17;;;6.65;;
41253;SDS011;26987;59.928;30.306;2024-02-16T06:53:51;13.05;;;6.43;;
41253;SDS011;26987;59.928;30.306;2024-02-16T06:56:19;14.23;;;5.63;;
41253;SDS011;26987;59.928;30.306;2024-02-16T06:58:47;15.68;;;6.20;;
41253;SDS011;26987;59.928;30.306;2024-02-16T07:01:15;13.93;;;5.88;;
41253;SDS011;26987;59.928;30.306;2024-02-16T07:03:44;15.07;;;6.03;;
41253;SDS011;26987;59.928;30.306;2024-02-16T07:06:13;11.95;;;5.22;;
41253;SDS011;26987;59.928;30.306;2024-02-16T07:08:41;12.82;;;7.53;;
41253;SDS011;26987;59.928;30.306;2024-02-16T07:11:10;13.50;;;6.93;;
41253;SDS011;26987;59.928;30.306;2024-02-16T07:13:39;17.35;;;7.95;;
41253;SDS011;26987;59.928;30.306;2024-02-16T07:16:08;16.15;;;6.63;;
41253;SDS011;26987;59.928;30.306;2024-02-16T07:18:36;18.35;;;6.68;;
41253;SDS011;26987;59.928;30.306;2024-02-16T07:21:04;25.65;;;9.45;;
41253;SDS011;26987;59.928;30.306;2024-02-16T07:23:34;22.25;;;7.82;;
41253;SDS011;26987;59.928;30.306;2024-02-16T07:26:02;14.43;;;5.57;;
41253;SDS011;26987;59.928;30.306;2024-02-16T07:28:30;12.30;;;5.75;;
41253;SDS011;26987;59.928;30.306;2024-02-16T07:30:59;16.67;;;6.25;;
41253;SDS011;26987;59.928;30.306;2024-02-16T07:33:26;15.45;;;5.40;;
41253;SDS011;26987;59.928;30.306;2024-02-16T07:35:54;15.18;;;5.72;;
41253;SDS011;26987;59.928;30.306;2024-02-16T07:38:22;14.35;;;5.18;;
41253;SDS011;26987;59.928;30.306;2024-02-16T07:40:52;12.18;;;6.05;;
41253;SDS011;26987;59.928;30.306;2024-02-16T07:43:20;15.25;;;5.07;;
41253;SDS011;26987;59.928;30.306;2024-02-16T07:45:50;14.77;;;4.93;;
41253;SDS011;26987;59.928;30.306;2024-02-16T07:48:19;11.60;;;5.07;;
41253;SDS011;26987;59.928;30.306;2024-02-16T07:50:47;10.73;;;4.82;;
41253;SDS011;26987;59.928;30.306;2024-02-16T07:53:16;11.93;;;4.95;;
41253;SDS011;26987;59.928;30.306;2024-02-16T07:55:44;16.27;;;6.00;;
41253;SDS011;26987;59.928;30.306;2024-02-16T07:58:13;11.90;;;5.25;;
41253;SDS011;26987;59.928;30.306;2024-02-16T08:00:41;15.48;;;5.65;;
41253;SDS011;26987;59.928;30.306;2024-02-16T08:03:09;18.02;;;5.63;;
41253;SDS011;26987;59.928;30.306;2024-02-16T08:05:37;18.10;;;5.75;;
41253;SDS011;26987;59.928;30.306;2024-02-16T08:08:05;14.15;;;5.38;;
41253;SDS011;26987;59.928;30.306;2024-02-16T08:10:33;18.48;;;5.68;;
41253;SDS011;26987;59.928;30.306;2024-02-16T08:13:02;18.02;;;7.05;;
41253;SDS011;26987;59.928;30.306;2024-02-16T08:15:32;13.38;;;6.20;;
41253;SDS011;26987;59.928;30.306;2024-02-16T08:17:59;17.13;;;5.90;;
41253;SDS011;26987;59.928;30.306;2024-02-16T08:20:27;17.17;;;6.28;;
41253;SDS011;26987;59.928;30.306;2024-02-16T08:22:55;12.45;;;5.40;;
41253;SDS011;26987;59.928;30.306;2024-02-16T08:25:24;16.95;;;5.70;;
41253;SDS011;26987;59.928;30.306;2024-02-16T08:27:51;10.43;;;4.88;;
41253;SDS011;26987;59.928;30.306;2024-02-16T08:30:19;9.68;;;5.18;;
41253;SDS011;26987;59.928;30.306;2024-02-16T08:32:49;11.77;;;5.70;;
41253;SDS011;26987;59.928;30.306;2024-02-16T08:35:17;13.38;;;5.15;;
41253;SDS011;26987;59.928;30.306;2024-02-16T08:37:45;16.88;;;5.50;;
41253;SDS011;26987;59.928;30.306;2024-02-16T08:40:13;13.52;;;5.65;;
41253;SDS011;26987;59.928;30.306;2024-02-16T08:42:44;14.70;;;5.95;;
41253;SDS011;26987;59.928;30.306;2024-02-16T08:45:13;10.13;;;5.30;;
41253;SDS011;26987;59.928;30.306;2024-02-16T08:47:43;11.52;;;5.65;;
41253;SDS011;26987;59.928;30.306;2024-02-16T08:50:12;13.05;;;6.07;;
41253;SDS011;26987;59.928;30.306;2024-02-16T08:52:40;11.32;;;5.45;;
41253;SDS011;26987;59.928;30.306;2024-02-16T08:55:08;12.20;;;6.00;;
41253;SDS011;26987;59.928;30.306;2024-02-16T08:57:36;13.52;;;5.45;;
41253;SDS011;26987;59.928;30.306;2024-02-16T09:00:04;13.98;;;5.07;;
41253;SDS011;26987;59.928;30.306;2024-02-16T09:02:34;14.80;;;5.95;;
41253;SDS011;26987;59.928;30.306;2024-02-16T09:05:02;11.23;;;5.00;;
41253;SDS011;26987;59.928;30.306;2024-02-16T09:07:32;10.43;;;5.40;;
41253;SDS011;26987;59.928;30.306;2024-02-16T09:09:59;11.88;;;5.25;;
41253;SDS011;26987;59.928;30.306;2024-02-16T09:12:27;11.45;;;5.07;;
41253;SDS011;26987;59.928;30.306;2024-02-16T09:14:55;15.32;;;5.40;;
41253;SDS011;26987;59.928;30.306;2024-02-16T09:17:23;23.88;;;6.05;;
41253;SDS011;26987;59.928;30.306;2024-02-16T09:19:52;15.50;;;5.13;;
41253;SDS011;26987;59.928;30.306;2024-02-16T09:22:20;12.75;;;5.20;;
41253;SDS011;26987;59.928;30.306;2024-02-16T09:24:49;17.45;;;5.45;;
41253;SDS011;26987;59.928;30.306;2024-02-16T09:27:17;18.02;;;5.10;;
41253;SDS011;26987;59.928;30.306;2024-02-16T09:29:45;13.25;;;5.35;;
41253;SDS011;26987;59.928;30.306;2024-02-16T09:32:13;11.15;;;4.40;;
41253;SDS011;26987;59.928;30.306;2024-02-16T09:34:41;12.82;;;4.57;;
41253;SDS011;26987;59.928;30.306;2024-02-16T09:37:08;11.35;;;4.90;;
41253;SDS011;26987;59.928;30.306;2024-02-16T09:39:37;11.70;;;5.30;;
41253;SDS011;26987;59.928;30.306;2024-02-16T09:42:08;13.52;;;5.25;;
41253;SDS011;26987;59.928;30.306;2024-02-16T09:44:36;14.68;;;4.50;;
41253;SDS011;26987;59.928;30.306;2024-02-16T09:47:06;16.08;;;5.45;;
41253;SDS011;26987;59.928;30.306;2024-02-16T09:49:38;11.90;;;5.38;;
41253;SDS011;26987;59.928;30.306;2024-02-16T09:52:06;13.00;;;4.78;;
41253;SDS011;26987;59.928;30.306;2024-02-16T09:54:38;15.32;;;5.70;;
41253;SDS011;26987;59.928;30.306;2024-02-16T09:57:06;15.00;;;5.45;;
41253;SDS011;26987;59.928;30.306;2024-02-16T09:59:36;10.25;;;4.90;;
41253;SDS011;26987;59.928;30.306;2024-02-16T10:02:04;9.05;;;4.45;;
41253;SDS011;26987;59.928;30.306;2024-02-16T10:04:33;13.07;;;4.43;;
41253;SDS011;26987;59.928;30.306;2024-02-16T10:07:01;10.93;;;4.55;;
41253;SDS011;26987;59.928;30.306;2024-02-16T10:09:28;10.68;;;4.40;;
41253;SDS011;26987;59.928;30.306;2024-02-16T10:11:56;13.88;;;5.43;;
41253;SDS011;26987;59.928;30.306;2024-02-16T10:14:24;13.95;;;5.90;;
41253;SDS011;26987;59.928;30.306;2024-02-16T10:17:00;13.57;;;6.07;;
41253;SDS011;26987;59.928;30.306;2024-02-16T10:19:29;15.32;;;6.20;;
41253;SDS011;26987;59.928;30.306;2024-02-16T10:22:07;14.88;;;6.53;;
41253;SDS011;26987;59.928;30.306;2024-02-16T10:24:35;9.80;;;4.97;;
41253;SDS011;26987;59.928;30.306;2024-02-16T10:27:04;10.10;;;5.22;;
41253;SDS011;26987;59.928;30.306;2024-02-16T10:29:33;13.40;;;4.90;;
41253;SDS011;26987;59.928;30.306;2024-02-16T10:32:05;15.15;;;5.57;;
41253;SDS011;26987;59.928;30.306;2024-02-16T10:34:33;16.02;;;5.97;;
41253;SDS011;26987;59.928;30.306;2024-02-16T10:37:05;17.33;;;6.65;;
41253;SDS011;26987;59.928;30.306;2024-02-16T10:39:34;16.17;;;6.32;;
41253;SDS011;26987;59.928;30.306;2024-02-16T10:42:04;11.30;;;5.43;;
41253;SDS011;26987;59.928;30.306;2024-02-16T10:44:34;13.57;;;5.65;;
41253;SDS011;26987;59.928;30.306;2024-02-16T10:47:03;12.05;;;5.13;;
41253;SDS011;26987;59.928;30.306;2024-02-16T10:49:32;9.32;;;5.15;;
41253;SDS011;26987;59.928;30.306;2024-02-16T10:52:00;8.40;;;4.30;;
41253;SDS011;26987;59.928;30.306;2024-02-16T10:54:32;10.45;;;5.15;;
41253;SDS011;26987;59.928;30.306;2024-02-16T10:57:07;12.30;;;5.30;;
41253;SDS011;26987;59.928;30.306;2024-02-16T10:59:37;9.63;;;4.88;;
41253;SDS011;26987;59.928;30.306;2024-02-16T11:02:11;9.38;;;4.20;;
41253;SDS011;26987;59.928;30.306;2024-02-16T11:04:45;11.90;;;5.50;;
41253;SDS011;26987;59.928;30.306;2024-02-16T11:07:15;17.02;;;6.13;;
41253;SDS011;26987;59.928;30.306;2024-02-16T11:09:44;8.95;;;4.95;;
41253;SDS011;26987;59.928;30.306;2024-02-16T11:12:13;14.80;;;5.40;;
41253;SDS011;26987;59.928;30.306;2024-02-16T11:14:41;11.82;;;4.72;;
41253;SDS011;26987;59.928;30.306;2024-02-16T11:17:12;11.32;;;4.65;;
41253;SDS011;26987;59.928;30.306;2024-02-16T11:19:40;12.25;;;6.03;;
41253;SDS011;26987;59.928;30.306;2024-02-16T11:22:09;11.70;;;5.00;;
41253;SDS011;26987;59.928;30.306;2024-02-16T11:24:42;13.18;;;4.93;;
41253;SDS011;26987;59.928;30.306;2024-02-16T11:27:11;8.93;;;4.88;;
41253;SDS011;26987;59.928;30.306;2024-02-16T11:29:41;11.00;;;4.75;;
41253;SDS011;26987;59.928;30.306;2024-02-16T11:32:09;9.98;;;4.70;;
41253;SDS011;26987;59.928;30.306;2024-02-16T11:34:41;9.18;;;4.70;;
41253;SDS011;26987;59.928;30.306;2024-02-16T11:37:09;8.90;;;4.30;;
41253;SDS011;26987;59.928;30.306;2024-02-16T11:39:40;9.32;;;4.07;;
41253;SDS011;26987;59.928;30.306;2024-02-16T11:42:10;10.82;;;4.90;;
41253;SDS011;26987;59.928;30.306;2024-02-16T11:44:40;13.75;;;5.00;;
41253;SDS011;26987;59.928;30.306;2024-02-16T11:47:20;9.32;;;4.22;;
41253;SDS011;26987;59.928;30.306;2024-02-16T11:50:01;8.13;;;3.97;;
41253;SDS011;26987;59.928;30.306;2024-02-16T11:52:29;9.90;;;4.40;;
41253;SDS011;26987;59.928;30.306;2024-02-16T11:54:58;7.57;;;3.80;;
41253;SDS011;26987;59.928;30.306;2024-02-16T11:57:27;9.82;;;4.40;;
41253;SDS011;26987;59.928;30.306;2024-02-16T11:59:55;8.48;;;4.25;;
41253;SDS011;26987;59.928;30.306;2024-02-16T12:02:23;11.02;;;4.50;;
41253;SDS011;26987;59.928;30.306;2024-02-16T12:04:57;11.38;;;5.25;;
41253;SDS011;26987;59.928;30.306;2024-02-16T12:07:27;10.35;;;4.22;;
41253;SDS011;26987;59.928;30.306;2024-02-16T12:09:56;7.63;;;4.13;;
41253;SDS011;26987;59.928;30.306;2024-02-16T12:12:25;9.88;;;4.80;;
41253;SDS011;26987;59.928;30.306;2024-02-16T12:14:53;13.30;;;5.28;;
41253;SDS011;26987;59.928;30.306;2024-02-16T12:17:22;11.88;;;5.65;;
41253;SDS011;26987;59.928;30.306;2024-02-16T12:19:50;10.15;;;4.97;;
41253;SDS011;26987;59.928;30.306;2024-02-16T12:22:19;12.88;;;5.68;;
41253;SDS011;26987;59.928;30.306;2024-02-16T12:24:49;11.48;;;4.53;;
41253;SDS011;26987;59.928;30.306;2024-02-16T12:27:18;11.27;;;4.97;;
41253;SDS011;26987;59.928;30.306;2024-02-16T12:29:46;8.82;;;4.18;;
41253;SDS011;26987;59.928;30.306;2024-02-16T12:32:13;10.15;;;5.03;;
41253;SDS011;26987;59.928;30.306;2024-02-16T12:34:45;10.95;;;4.38;;
41253;SDS011;26987;59.928;30.306;2024-02-16T12:37:13;10.85;;;4.72;;
41253;SDS011;26987;59.928;30.306;2024-02-16T12:39:41;13.88;;;4.85;;
41253;SDS011;26987;59.928;30.306;2024-02-16T12:42:12;9.85;;;4.13;;
41253;SDS011;26987;59.928;30.306;2024-02-16T12:44:41;14.10;;;5.55;;
41253;SDS011;26987;59.928;30.306;2024-02-16T12:47:09;12.43;;;4.50;;
41253;SDS011;26987;59.928;30.306;2024-02-16T12:49:36;12.52;;;4.80;;
41253;SDS011;26987;59.928;30.306;2024-02-16T12:52:06;12.70;;;4.95;;
41253;SDS011;26987;59.928;30.306;2024-02-16T12:54:34;9.10;;;4.65;;
41253;SDS011;26987;59.928;30.306;2024-02-16T12:57:02;14.55;;;4.95;;
41253;SDS011;26987;59.928;30.306;2024-02-16T12:59:31;11.73;;;5.25;;
41253;SDS011;26987;59.928;30.306;2024-02-16T13:01:59;13.18;;;4.63;;
41253;SDS011;26987;59.928;30.306;2024-02-16T13:04:28;10.80;;;4.53;;
41253;SDS011;26987;59.928;30.306;2024-02-16T13:06:58;11.90;;;4.65;;
41253;SDS011;26987;59.928;30.306;2024-02-16T13:09:26;9.80;;;4.38;;
41253;SDS011;26987;59.928;30.306;2024-02-16T13:11:54;10.38;;;4.63;;
41253;SDS011;26987;59.928;30.306;2024-02-16T13:14:22;9.25;;;4.32;;
41253;SDS011;26987;59.928;30.306;2024-02-16T13:16:51;10.25;;;4.75;;
41253;SDS011;26987;59.928;30.306;2024-02-16T13:19:19;7.63;;;3.53;;
41253;SDS011;26987;59.928;30.306;2024-02-16T13:21:47;8.07;;;3.45;;
41253;SDS011;26987;59.928;30.306;2024-02-16T13:24:16;12.48;;;4.22;;
41253;SDS011;26987;59.928;30.306;2024-02-16T13:26:44;16.70;;;4.53;;
41253;SDS011;26987;59.928;30.306;2024-02-16T13:29:12;9.38;;;4.55;;
41253;SDS011;26987;59.928;30.306;2024-02-16T13:31:40;12.10;;;4.10;;
41253;SDS011;26987;59.928;30.306;2024-02-16T13:34:10;10.95;;;4.55;;
41253;SDS011;26987;59.928;30.306;2024-02-16T13:36:37;8.43;;;3.22;;
41253;SDS011;26987;59.928;30.306;2024-02-16T13:39:05;8.63;;;4.18;;
41253;SDS011;26987;59.928;30.306;2024-02-16T13:41:34;11.68;;;4.03;;
41253;SDS011;26987;59.928;30.306;2024-02-16T13:44:01;9.20;;;4.15;;
41253;SDS011;26987;59.928;30.306;2024-02-16T13:46:29;10.43;;;4.97;;
41253;SDS011;26987;59.928;30.306;2024-02-16T13:48:57;10.85;;;4.80;;
41253;SDS011;26987;59.928;30.306;2024-02-16T13:51:27;10.30;;;4.03;;
41253;SDS011;26987;59.928;30.306;2024-02-16T13:53:54;8.65;;;4.20;;
41253;SDS011;26987;59.928;30.306;2024-02-16T13:56:22;12.98;;;4.60;;
41253;SDS011;26987;59.928;30.306;2024-02-16T13:58:50;13.52;;;5.00;;
41253;SDS011;26987;59.928;30.306;2024-02-16T14:01:18;10.75;;;4.90;;
41253;SDS011;26987;59.928;30.306;2024-02-16T14:03:46;18.33;;;5.35;;
41253;SDS011;26987;59.928;30.306;2024-02-16T14:06:16;14.02;;;4.70;;
41253;SDS011;26987;59.928;30.306;2024-02-16T14:08:45;8.30;;;4.30;;
41253;SDS011;26987;59.928;30.306;2024-02-16T14:11:15;11.13;;;5.30;;
41253;SDS011;26987;59.928;30.306;2024-02-16T14:13:43;14.55;;;4.75;;
41253;SDS011;26987;59.928;30.306;2024-02-16T14:16:11;14.90;;;5.18;;
41253;SDS011;26987;59.928;30.306;2024-02-16T14:18:38;10.10;;;4.88;;
41253;SDS011;26987;59.928;30.306;2024-02-16T14:21:06;17.38;;;5.43;;
41253;SDS011;26987;59.928;30.306;2024-02-16T14:23:34;11.75;;;5.75;;
41253;SDS011;26987;59.928;30.306;2024-02-16T14:26:04;12.93;;;5.57;;
41253;SDS011;26987;59.928;30.306;2024-02-16T14:28:32;10.48;;;4.70;;